sensor_id;sensor_type;location;lat;lon;timestamp;pressure;altitude;pressure_sealevel;temperature;humidity
30081;BME280;16902;50.816;12.828;2023-04-10T00:01:38;98625.09;;;0.05;100.00
30081;BME280;16902;50.816;12.828;2023-04-10T00:06:39;98623.00;;;0.11;100.00
30081;BME280;16902;50.816;12.828;2023-04-10T00:11:42;98617.72;;;0.00;100.00
30081;BME280;16902;50.816;12.828;2023-04-10T00:16:44;98615.22;;;-0.02;100.00
30081;BME280;16902;50.816;12.828;2023-04-10T00:21:48;98610.31;;;-0.05;100.00
30081;BME280;16902;50.816;12.828;2023-04-10T00:26:50;98610.38;;;-0.06;100.00
30081;BME280;16902;50.816;12.828;2023-04-10T00:31:52;98606.72;;;-0.02;100.00
30081;BME280;16902;50.816;12.828;2023-04-10T00:36:54;98602.06;;;-0.10;100.00
30081;BME280;16902;50.816;12.828;2023-04-10T00:41:56;98601.16;;;-0.23;100.00
30081;BME280;16902;50.816;12.828;2023-04-10T00:46:58;98599.81;;;-0.29;100.00
30081;BME280;16902;50.816;12.828;2023-04-10T00:52:00;98601.31;;;-0.55;100.00
30081;BME280;16902;50.816;12.828;2023-04-10T00:57:03;98602.50;;;-0.60;100.00
30081;BME280;16902;50.816;12.828;2023-04-10T01:02:08;98599.03;;;-0.59;100.00
30081;BME280;16902;50.816;12.828;2023-04-10T01:34:11;98599.09;;;-0.75;100.00
30081;BME280;16902;50.816;12.828;2023-04-10T01:39:20;98598.28;;;-0.75;100.00
30081;BME280;16902;50.816;12.828;2023-04-10T01:44:28;98594.72;;;-0.73;100.00
30081;BME280;16902;50.816;12.828;2023-04-10T01:49:31;98587.88;;;-0.72;100.00
30081;BME280;16902;50.816;12.828;2023-04-10T01:54:37;98587.59;;;-0.82;100.00
30081;BME280;16902;50.816;12.828;2023-04-10T01:59:40;98594.59;;;-0.86;100.00
30081;BME280;16902;50.816;12.828;2023-04-10T02:04:42;98595.84;;;-0.93;100.00
30081;BME280;16902;50.816;12.828;2023-04-10T02:10:01;98592.56;;;-0.95;100.00
30081;BME280;16902;50.816;12.828;2023-04-10T02:15:08;98582.19;;;-0.92;100.00
30081;BME280;16902;50.816;12.828;2023-04-10T02:20:11;98585.81;;;-0.96;100.00
30081;BME280;16902;50.816;12.828;2023-04-10T02:25:13;98587.06;;;-1.03;100.00
30081;BME280;16902;50.816;12.828;2023-04-10T02:30:16;98578.66;;;-1.05;100.00
30081;BME280;16902;50.816;12.828;2023-04-10T02:35:18;98587.25;;;-1.22;100.00
30081;BME280;16902;50.816;12.828;2023-04-10T02:40:20;98581.91;;;-1.17;100.00
30081;BME280;16902;50.816;12.828;2023-04-10T02:45:30;98585.53;;;-1.21;100.00
30081;BME280;16902;50.816;12.828;2023-04-10T02:50:33;98588.06;;;-1.06;100.00
30081;BME280;16902;50.816;12.828;2023-04-10T02:55:35;98587.97;;;-1.04;100.00
30081;BME280;16902;50.816;12.828;2023-04-10T03:00:37;98580.66;;;-1.10;100.00
30081;BME280;16902;50.816;12.828;2023-04-10T03:05:48;98579.03;;;-1.27;100.00
30081;BME280;16902;50.816;12.828;2023-04-10T03:10:55;98592.56;;;-1.25;100.00
30081;BME280;16902;50.816;12.828;2023-04-10T03:15:57;98582.41;;;-1.26;100.00
30081;BME280;16902;50.816;12.828;2023-04-10T03:20:59;98584.25;;;-1.28;100.00
30081;BME280;16902;50.816;12.828;2023-04-10T03:26:02;98580.56;;;-1.39;100.00
30081;BME280;16902;50.816;12.828;2023-04-10T03:31:10;98576.72;;;-1.32;100.00
30081;BME280;16902;50.816;12.828;2023-04-10T03:36:15;98587.63;;;-1.28;100.00
30081;BME280;16902;50.816;12.828;2023-04-10T03:41:17;98586.78;;;-1.28;100.00
30081;BME280;16902;50.816;12.828;2023-04-10T03:46:19;98589.84;;;-1.38;100.00
30081;BME280;16902;50.816;12.828;2023-04-10T03:51:24;98592.81;;;-1.45;100.00
30081;BME280;16902;50.816;12.828;2023-04-10T03:56:27;98600.25;;;-1.57;100.00
30081;BME280;16902;50.816;12.828;2023-04-10T04:01:29;98597.53;;;-1.53;100.00
30081;BME280;16902;50.816;12.828;2023-04-10T04:06:36;98596.97;;;-1.59;100.00
30081;BME280;16902;50.816;12.828;2023-04-10T04:11:50;98591.41;;;-1.51;100.00
30081;BME280;16902;50.816;12.828;2023-04-10T04:17:21;98597.19;;;-1.47;100.00
30081;BME280;16902;50.816;12.828;2023-04-10T04:22:42;98592.75;;;-1.44;100.00
30081;BME280;16902;50.816;12.828;2023-04-10T04:27:46;98590.34;;;-1.47;100.00
30081;BME280;16902;50.816;12.828;2023-04-10T04:33:06;98592.81;;;-1.45;100.00
30081;BME280;16902;50.816;12.828;2023-04-10T04:38:41;98608.38;;;-1.50;100.00
30081;BME280;16902;50.816;12.828;2023-04-10T04:44:04;98606.44;;;-1.45;100.00
30081;BME280;16902;50.816;12.828;2023-04-10T04:49:31;98606.16;;;-1.40;100.00
30081;BME280;16902;50.816;12.828;2023-04-10T04:54:56;98620.50;;;-1.38;100.00
30081;BME280;16902;50.816;12.828;2023-04-10T05:00:24;98626.66;;;-1.26;100.00
30081;BME280;16902;50.816;12.828;2023-04-10T05:05:26;98618.22;;;-1.12;100.00
30081;BME280;16902;50.816;12.828;2023-04-10T05:10:51;98629.69;;;-1.04;100.00
30081;BME280;16902;50.816;12.828;2023-04-10T05:16:25;98623.81;;;-0.90;100.00
30081;BME280;16902;50.816;12.828;2023-04-10T05:21:48;98628.44;;;-0.66;100.00
30081;BME280;16902;50.816;12.828;2023-04-10T05:27:08;98633.06;;;-0.43;100.00
30081;BME280;16902;50.816;12.828;2023-04-10T05:32:29;98622.38;;;-0.21;100.00
30081;BME280;16902;50.816;12.828;2023-04-10T05:37:51;98619.44;;;-0.01;100.00
30081;BME280;16902;50.816;12.828;2023-04-10T05:43:16;98618.16;;;0.21;100.00
30081;BME280;16902;50.816;12.828;2023-04-10T05:48:38;98615.00;;;0.44;100.00
30081;BME280;16902;50.816;12.828;2023-04-10T05:53:50;98610.38;;;0.64;100.00
30081;BME280;16902;50.816;12.828;2023-04-10T05:59:22;98618.13;;;0.62;100.00
30081;BME280;16902;50.816;12.828;2023-04-10T06:04:33;98618.03;;;0.78;100.00
30081;BME280;16902;50.816;12.828;2023-04-10T06:09:35;98613.59;;;1.07;100.00
30081;BME280;16902;50.816;12.828;2023-04-10T06:14:40;98618.34;;;1.39;100.00
30081;BME280;16902;50.816;12.828;2023-04-10T06:19:42;98616.41;;;1.68;100.00
30081;BME280;16902;50.816;12.828;2023-04-10T06:24:44;98614.16;;;2.01;100.00
30081;BME280;16902;50.816;12.828;2023-04-10T06:29:46;98619.91;;;2.42;100.00
30081;BME280;16902;50.816;12.828;2023-04-10T06:34:50;98605.72;;;2.73;100.00
30081;BME280;16902;50.816;12.828;2023-04-10T06:40:04;98603.53;;;3.03;100.00
30081;BME280;16902;50.816;12.828;2023-04-10T06:45:07;98606.44;;;3.34;100.00
30081;BME280;16902;50.816;12.828;2023-04-10T06:50:09;98610.34;;;3.62;100.00
30081;BME280;16902;50.816;12.828;2023-04-10T06:55:11;98599.72;;;4.00;100.00
30081;BME280;16902;50.816;12.828;2023-04-10T07:00:14;98586.81;;;4.34;100.00
30081;BME280;16902;50.816;12.828;2023-04-10T07:05:16;98586.50;;;4.71;100.00
30081;BME280;16902;50.816;12.828;2023-04-10T07:10:18;98582.47;;;5.10;100.00
30081;BME280;16902;50.816;12.828;2023-04-10T07:15:20;98580.00;;;5.71;100.00
30081;BME280;16902;50.816;12.828;2023-04-10T07:20:22;98583.00;;;6.07;100.00
30081;BME280;16902;50.816;12.828;2023-04-10T07:25:24;98581.75;;;6.41;100.00
30081;BME280;16902;50.816;12.828;2023-04-10T07:30:25;98576.06;;;6.67;100.00
30081;BME280;16902;50.816;12.828;2023-04-10T07:35:27;98571.75;;;6.87;100.00
30081;BME280;16902;50.816;12.828;2023-04-10T07:40:29;98573.22;;;7.09;100.00
30081;BME280;16902;50.816;12.828;2023-04-10T07:45:30;98568.56;;;7.32;100.00
30081;BME280;16902;50.816;12.828;2023-04-10T07:50:32;98575.16;;;7.63;100.00
30081;BME280;16902;50.816;12.828;2023-04-10T07:55:38;98561.06;;;8.13;100.00
30081;BME280;16902;50.816;12.828;2023-04-10T08:00:40;98561.56;;;8.71;100.00
30081;BME280;16902;50.816;12.828;2023-04-10T08:05:41;98561.50;;;9.25;100.00
30081;BME280;16902;50.816;12.828;2023-04-10T08:10:43;98555.50;;;9.24;100.00
30081;BME280;16902;50.816;12.828;2023-04-10T08:15:45;98558.06;;;9.68;100.00
30081;BME280;16902;50.816;12.828;2023-04-10T08:20:46;98556.44;;;10.10;100.00
30081;BME280;16902;50.816;12.828;2023-04-10T08:25:48;98550.59;;;10.58;100.00
30081;BME280;16902;50.816;12.828;2023-04-10T08:30:52;98553.88;;;10.76;100.00
30081;BME280;16902;50.816;12.828;2023-04-10T08:35:54;98551.63;;;11.06;100.00
30081;BME280;16902;50.816;12.828;2023-04-10T08:40:56;98540.50;;;11.53;100.00
30081;BME280;16902;50.816;12.828;2023-04-10T08:45:58;98534.88;;;11.80;100.00
30081;BME280;16902;50.816;12.828;2023-04-10T08:51:00;98533.06;;;11.97;100.00
30081;BME280;16902;50.816;12.828;2023-04-10T08:56:06;98535.22;;;12.25;100.00
30081;BME280;16902;50.816;12.828;2023-04-10T09:01:08;98525.19;;;12.37;100.00
30081;BME280;16902;50.816;12.828;2023-04-10T09:06:10;98516.69;;;12.66;100.00
30081;BME280;16902;50.816;12.828;2023-04-10T09:11:11;98511.84;;;12.31;100.00
30081;BME280;16902;50.816;12.828;2023-04-10T09:16:14;98509.06;;;12.79;100.00
30081;BME280;16902;50.816;12.828;2023-04-10T09:21:20;98504.66;;;12.79;100.00
30081;BME280;16902;50.816;12.828;2023-04-10T09:26:23;98509.47;;;12.91;100.00
30081;BME280;16902;50.816;12.828;2023-04-10T09:31:30;98499.19;;;12.66;100.00
30081;BME280;16902;50.816;12.828;2023-04-10T09:36:32;98505.91;;;13.44;100.00
30081;BME280;16902;50.816;12.828;2023-04-10T09:41:34;98491.38;;;13.71;100.00
30081;BME280;16902;50.816;12.828;2023-04-10T09:46:47;98481.28;;;14.19;100.00
30081;BME280;16902;50.816;12.828;2023-04-10T09:51:52;98466.22;;;14.06;100.00
30081;BME280;16902;50.816;12.828;2023-04-10T09:56:54;98462.06;;;13.76;100.00
30081;BME280;16902;50.816;12.828;2023-04-10T10:01:57;98454.72;;;13.86;100.00
30081;BME280;16902;50.816;12.828;2023-04-10T10:06:59;98440.13;;;14.34;100.00
30081;BME280;16902;50.816;12.828;2023-04-10T10:12:02;98432.72;;;14.59;100.00
30081;BME280;16902;50.816;12.828;2023-04-10T10:17:07;98429.19;;;14.95;100.00
30081;BME280;16902;50.816;12.828;2023-04-10T10:22:11;98425.03;;;15.07;100.00
30081;BME280;16902;50.816;12.828;2023-04-10T10:27:15;98404.00;;;15.70;100.00
30081;BME280;16902;50.816;12.828;2023-04-10T10:32:19;98404.72;;;16.05;100.00
30081;BME280;16902;50.816;12.828;2023-04-10T10:37:22;98400.22;;;15.38;100.00
30081;BME280;16902;50.816;12.828;2023-04-10T10:42:26;98388.78;;;16.20;100.00
30081;BME280;16902;50.816;12.828;2023-04-10T10:47:31;98379.22;;;15.92;100.00
30081;BME280;16902;50.816;12.828;2023-04-10T10:52:51;98379.69;;;16.23;100.00
30081;BME280;16902;50.816;12.828;2023-04-10T10:57:54;98373.84;;;16.54;100.00
30081;BME280;16902;50.816;12.828;2023-04-10T11:08:36;98365.75;;;18.30;100.00
30081;BME280;16902;50.816;12.828;2023-04-10T11:24:15;98348.38;;;21.70;50.71
30081;BME280;16902;50.816;12.828;2023-04-10T11:34:28;98333.72;;;24.17;42.81
30081;BME280;16902;50.816;12.828;2023-04-10T11:39:36;98335.25;;;23.31;44.06
30081;BME280;16902;50.816;12.828;2023-04-10T11:44:38;98328.50;;;24.64;41.05
30081;BME280;16902;50.816;12.828;2023-04-10T11:49:41;98318.94;;;26.60;40.20
30081;BME280;16902;50.816;12.828;2023-04-10T11:54:47;98317.13;;;23.77;38.96
30081;BME280;16902;50.816;12.828;2023-04-10T11:59:49;98313.75;;;22.55;38.00
30081;BME280;16902;50.816;12.828;2023-04-10T12:04:57;98305.72;;;22.17;40.43
30081;BME280;16902;50.816;12.828;2023-04-10T12:09:59;98303.63;;;24.11;41.16
30081;BME280;16902;50.816;12.828;2023-04-10T12:15:06;98299.22;;;23.41;41.86
30081;BME280;16902;50.816;12.828;2023-04-10T12:20:23;98287.69;;;24.48;38.98
30081;BME280;16902;50.816;12.828;2023-04-10T12:25:28;98299.69;;;25.86;37.82
30081;BME280;16902;50.816;12.828;2023-04-10T12:30:29;98287.56;;;24.01;36.50
30081;BME280;16902;50.816;12.828;2023-04-10T12:35:40;98275.94;;;22.65;41.14
30081;BME280;16902;50.816;12.828;2023-04-10T12:40:59;98271.94;;;26.49;37.11
30081;BME280;16902;50.816;12.828;2023-04-10T12:46:01;98277.47;;;24.77;38.94
30081;BME280;16902;50.816;12.828;2023-04-10T12:51:03;98264.38;;;25.33;38.58
30081;BME280;16902;50.816;12.828;2023-04-10T12:56:07;98245.19;;;25.31;37.48
30081;BME280;16902;50.816;12.828;2023-04-10T13:01:09;98244.88;;;24.18;40.01
30081;BME280;16902;50.816;12.828;2023-04-10T13:06:11;98232.06;;;23.77;39.35
30081;BME280;16902;50.816;12.828;2023-04-10T13:11:12;98213.44;;;23.77;40.65
30081;BME280;16902;50.816;12.828;2023-04-10T13:16:17;98210.88;;;21.73;45.68
30081;BME280;16902;50.816;12.828;2023-04-10T13:21:19;98210.03;;;21.11;46.96
30081;BME280;16902;50.816;12.828;2023-04-10T13:26:23;98189.53;;;18.70;53.64
30081;BME280;16902;50.816;12.828;2023-04-10T13:31:25;98180.31;;;23.90;40.04
30081;BME280;16902;50.816;12.828;2023-04-10T13:36:27;98171.88;;;23.39;41.25
30081;BME280;16902;50.816;12.828;2023-04-10T13:41:29;98168.13;;;25.09;37.53
30081;BME280;16902;50.816;12.828;2023-04-10T13:46:30;98156.22;;;26.69;34.99
30081;BME280;16902;50.816;12.828;2023-04-10T13:51:32;98152.53;;;29.54;33.92
30081;BME280;16902;50.816;12.828;2023-04-10T13:56:34;98145.94;;;29.13;33.46
30081;BME280;16902;50.816;12.828;2023-04-10T14:01:36;98139.84;;;26.05;35.10
30081;BME280;16902;50.816;12.828;2023-04-10T14:06:37;98124.13;;;25.02;36.91
30081;BME280;16902;50.816;12.828;2023-04-10T14:11:39;98120.44;;;25.84;36.07
30081;BME280;16902;50.816;12.828;2023-04-10T14:16:41;98109.81;;;27.43;34.15
30081;BME280;16902;50.816;12.828;2023-04-10T14:21:42;98117.38;;;29.04;33.74
30081;BME280;16902;50.816;12.828;2023-04-10T14:26:44;98101.56;;;26.51;34.38
30081;BME280;16902;50.816;12.828;2023-04-10T14:31:46;98099.38;;;28.24;33.41
30081;BME280;16902;50.816;12.828;2023-04-10T14:36:58;98093.88;;;31.21;30.92
30081;BME280;16902;50.816;12.828;2023-04-10T14:42:00;98078.81;;;28.81;32.56
30081;BME280;16902;50.816;12.828;2023-04-10T14:47:02;98074.88;;;29.76;31.36
30081;BME280;16902;50.816;12.828;2023-04-10T14:52:06;98066.25;;;27.08;33.39
30081;BME280;16902;50.816;12.828;2023-04-10T14:57:08;98067.13;;;25.49;34.47
30081;BME280;16902;50.816;12.828;2023-04-10T15:02:11;98062.50;;;27.09;33.13
30081;BME280;16902;50.816;12.828;2023-04-10T15:07:13;98052.94;;;26.54;34.00
30081;BME280;16902;50.816;12.828;2023-04-10T15:12:14;98046.31;;;26.41;34.23
30081;BME280;16902;50.816;12.828;2023-04-10T15:17:20;98037.44;;;23.75;35.23
30081;BME280;16902;50.816;12.828;2023-04-10T15:22:22;98027.94;;;19.98;41.11
30081;BME280;16902;50.816;12.828;2023-04-10T15:27:24;98014.78;;;18.44;47.30
30081;BME280;16902;50.816;12.828;2023-04-10T15:32:27;98009.50;;;17.34;51.50
30081;BME280;16902;50.816;12.828;2023-04-10T15:37:29;97998.84;;;16.79;49.34
30081;BME280;16902;50.816;12.828;2023-04-10T15:42:31;97989.91;;;16.10;53.66
30081;BME280;16902;50.816;12.828;2023-04-10T15:47:33;97986.00;;;15.61;59.71
30081;BME280;16902;50.816;12.828;2023-04-10T15:52:35;97978.34;;;15.73;57.09
30081;BME280;16902;50.816;12.828;2023-04-10T15:57:36;97966.16;;;15.92;55.95
30081;BME280;16902;50.816;12.828;2023-04-10T16:02:38;97958.28;;;15.85;56.99
30081;BME280;16902;50.816;12.828;2023-04-10T16:07:40;97959.16;;;15.66;58.46
30081;BME280;16902;50.816;12.828;2023-04-10T16:12:44;97953.88;;;15.86;55.35
30081;BME280;16902;50.816;12.828;2023-04-10T16:17:45;97944.66;;;15.50;56.59
30081;BME280;16902;50.816;12.828;2023-04-10T16:22:47;97946.97;;;15.13;62.83
30081;BME280;16902;50.816;12.828;2023-04-10T16:27:49;97945.16;;;14.81;62.76
30081;BME280;16902;50.816;12.828;2023-04-10T16:32:51;97938.91;;;14.55;61.51
30081;BME280;16902;50.816;12.828;2023-04-10T16:37:53;97935.31;;;13.88;68.41
30081;BME280;16902;50.816;12.828;2023-04-10T16:42:54;97927.56;;;13.60;73.44
30081;BME280;16902;50.816;12.828;2023-04-10T16:47:56;97923.41;;;13.10;72.72
30081;BME280;16902;50.816;12.828;2023-04-10T16:52:58;97916.56;;;12.81;76.82
30081;BME280;16902;50.816;12.828;2023-04-10T16:58:00;97912.09;;;12.47;87.88
30081;BME280;16902;50.816;12.828;2023-04-10T17:03:01;97905.25;;;12.46;77.67
30081;BME280;16902;50.816;12.828;2023-04-10T17:08:03;97898.09;;;12.54;75.82
30081;BME280;16902;50.816;12.828;2023-04-10T17:13:05;97891.72;;;12.35;75.61
30081;BME280;16902;50.816;12.828;2023-04-10T17:18:07;97889.16;;;12.21;78.96
30081;BME280;16902;50.816;12.828;2023-04-10T17:23:09;97883.88;;;11.93;82.25
30081;BME280;16902;50.816;12.828;2023-04-10T17:28:11;97887.88;;;11.59;90.91
30081;BME280;16902;50.816;12.828;2023-04-10T17:33:13;97881.28;;;11.27;100.00
30081;BME280;16902;50.816;12.828;2023-04-10T17:38:14;97870.50;;;11.00;100.00
30081;BME280;16902;50.816;12.828;2023-04-10T17:43:16;97872.44;;;10.69;100.00
30081;BME280;16902;50.816;12.828;2023-04-10T17:48:18;97865.59;;;10.53;100.00
30081;BME280;16902;50.816;12.828;2023-04-10T17:53:20;97865.53;;;10.38;100.00
30081;BME280;16902;50.816;12.828;2023-04-10T17:58:21;97856.28;;;10.13;100.00
30081;BME280;16902;50.816;12.828;2023-04-10T18:03:23;97857.09;;;9.90;100.00
30081;BME280;16902;50.816;12.828;2023-04-10T18:08:25;97849.41;;;9.74;100.00
30081;BME280;16902;50.816;12.828;2023-04-10T18:13:26;97844.44;;;9.64;100.00
30081;BME280;16902;50.816;12.828;2023-04-10T18:18:28;97855.84;;;9.55;100.00
30081;BME280;16902;50.816;12.828;2023-04-10T18:23:30;97839.78;;;9.51;100.00
30081;BME280;16902;50.816;12.828;2023-04-10T18:28:33;97834.69;;;9.35;100.00
30081;BME280;16902;50.816;12.828;2023-04-10T18:33:36;97842.66;;;9.34;100.00
30081;BME280;16902;50.816;12.828;2023-04-10T18:38:38;97837.00;;;9.22;100.00
30081;BME280;16902;50.816;12.828;2023-04-10T18:43:43;97829.91;;;9.16;100.00
30081;BME280;16902;50.816;12.828;2023-04-10T18:49:04;97828.47;;;9.05;100.00
30081;BME280;16902;50.816;12.828;2023-04-10T18:54:06;97816.00;;;8.92;100.00
30081;BME280;16902;50.816;12.828;2023-04-10T18:59:07;97812.50;;;8.77;100.00
30081;BME280;16902;50.816;12.828;2023-04-10T19:04:09;97811.22;;;8.65;100.00
30081;BME280;16902;50.816;12.828;2023-04-10T19:09:12;97816.28;;;8.58;100.00
30081;BME280;16902;50.816;12.828;2023-04-10T19:14:14;97812.72;;;8.51;100.00
30081;BME280;16902;50.816;12.828;2023-04-10T19:19:15;97803.47;;;8.48;100.00
30081;BME280;16902;50.816;12.828;2023-04-10T19:24:17;97802.84;;;8.46;100.00
30081;BME280;16902;50.816;12.828;2023-04-10T19:29:19;97800.53;;;8.35;100.00
30081;BME280;16902;50.816;12.828;2023-04-10T19:34:21;97793.28;;;8.22;100.00
30081;BME280;16902;50.816;12.828;2023-04-10T19:39:23;97777.09;;;8.04;100.00
30081;BME280;16902;50.816;12.828;2023-04-10T19:44:25;97765.09;;;7.87;100.00
30081;BME280;16902;50.816;12.828;2023-04-10T19:49:31;97744.19;;;7.72;100.00
30081;BME280;16902;50.816;12.828;2023-04-10T19:54:33;97748.41;;;7.65;100.00
30081;BME280;16902;50.816;12.828;2023-04-10T19:59:35;97745.50;;;7.68;100.00
30081;BME280;16902;50.816;12.828;2023-04-10T20:04:37;97722.81;;;7.54;100.00
30081;BME280;16902;50.816;12.828;2023-04-10T20:09:40;97715.38;;;7.51;100.00
30081;BME280;16902;50.816;12.828;2023-04-10T20:14:42;97695.94;;;7.38;100.00
30081;BME280;16902;50.816;12.828;2023-04-10T20:19:45;97688.00;;;7.32;100.00
30081;BME280;16902;50.816;12.828;2023-04-10T20:24:47;97696.09;;;7.29;100.00
30081;BME280;16902;50.816;12.828;2023-04-10T20:29:49;97684.59;;;7.31;100.00
30081;BME280;16902;50.816;12.828;2023-04-10T20:34:50;97682.31;;;7.28;100.00
30081;BME280;16902;50.816;12.828;2023-04-10T20:39:52;97672.94;;;7.27;100.00
30081;BME280;16902;50.816;12.828;2023-04-10T20:44:54;97668.75;;;7.26;100.00
30081;BME280;16902;50.816;12.828;2023-04-10T20:49:56;97659.00;;;7.20;100.00
30081;BME280;16902;50.816;12.828;2023-04-10T20:54:58;97656.91;;;7.15;100.00
30081;BME280;16902;50.816;12.828;2023-04-10T21:00:00;97661.91;;;7.25;100.00
30081;BME280;16902;50.816;12.828;2023-04-10T21:05:02;97652.22;;;7.27;100.00
30081;BME280;16902;50.816;12.828;2023-04-10T21:10:04;97645.25;;;7.19;100.00
30081;BME280;16902;50.816;12.828;2023-04-10T21:15:07;97642.50;;;7.13;100.00
30081;BME280;16902;50.816;12.828;2023-04-10T21:20:09;97648.81;;;7.10;100.00
30081;BME280;16902;50.816;12.828;2023-04-10T21:25:11;97641.69;;;7.04;100.00
30081;BME280;16902;50.816;12.828;2023-04-10T21:30:13;97636.50;;;6.96;100.00
30081;BME280;16902;50.816;12.828;2023-04-10T21:35:15;97622.41;;;6.90;100.00
30081;BME280;16902;50.816;12.828;2023-04-10T21:40:17;97633.25;;;6.86;100.00
30081;BME280;16902;50.816;12.828;2023-04-10T21:45:19;97628.75;;;7.37;100.00
30081;BME280;16902;50.816;12.828;2023-04-10T21:50:23;97624.19;;;7.63;100.00
30081;BME280;16902;50.816;12.828;2023-04-10T21:55:25;97615.63;;;7.71;100.00
30081;BME280;16902;50.816;12.828;2023-04-10T22:00:27;97617.97;;;7.97;100.00
30081;BME280;16902;50.816;12.828;2023-04-10T22:05:29;97601.50;;;8.29;100.00
30081;BME280;16902;50.816;12.828;2023-04-10T22:10:33;97586.56;;;8.31;100.00
30081;BME280;16902;50.816;12.828;2023-04-10T22:15:35;97579.50;;;8.17;100.00
30081;BME280;16902;50.816;12.828;2023-04-10T22:20:37;97566.28;;;8.04;100.00
30081;BME280;16902;50.816;12.828;2023-04-10T22:25:39;97572.56;;;8.09;100.00
30081;BME280;16902;50.816;12.828;2023-04-10T22:30:40;97567.91;;;8.36;100.00
30081;BME280;16902;50.816;12.828;2023-04-10T22:35:42;97566.44;;;8.72;100.00
30081;BME280;16902;50.816;12.828;2023-04-10T22:40:44;97556.16;;;8.56;100.00
30081;BME280;16902;50.816;12.828;2023-04-10T22:45:46;97550.13;;;8.24;100.00
30081;BME280;16902;50.816;12.828;2023-04-10T22:50:48;97529.69;;;7.98;100.00
30081;BME280;16902;50.816;12.828;2023-04-10T22:55:50;97520.34;;;7.81;100.00
30081;BME280;16902;50.816;12.828;2023-04-10T23:00:52;97515.56;;;7.62;100.00
30081;BME280;16902;50.816;12.828;2023-04-10T23:05:53;97499.25;;;7.45;100.00
30081;BME280;16902;50.816;12.828;2023-04-10T23:10:56;97498.97;;;7.32;100.00
30081;BME280;16902;50.816;12.828;2023-04-10T23:15:58;97481.66;;;7.24;100.00
30081;BME280;16902;50.816;12.828;2023-04-10T23:21:03;97471.47;;;7.31;100.00
30081;BME280;16902;50.816;12.828;2023-04-10T23:26:06;97466.41;;;7.37;100.00
30081;BME280;16902;50.816;12.828;2023-04-10T23:31:08;97455.88;;;7.39;100.00
30081;BME280;16902;50.816;12.828;2023-04-10T23:36:10;97445.88;;;7.36;100.00
30081;BME280;16902;50.816;12.828;2023-04-10T23:41:12;97430.78;;;7.39;100.00
30081;BME280;16902;50.816;12.828;2023-04-10T23:46:13;97410.56;;;7.35;100.00
30081;BME280;16902;50.816;12.828;2023-04-10T23:51:15;97399.88;;;7.46;100.00
30081;BME280;16902;50.816;12.828;2023-04-10T23:56:17;97381.63;;;7.31;100.00
